Grassy, Missouri
Current Conditions -  °F | °C
As of 11:53 AM on Friday 28 Nov 2014 (Local Time) from KCGI Reporting Station
Clear Clear  
Wind Chill: 35°   Ceiling: Unl
Heat Index: 43°   Visibility: 10mi
Dew Point: 33°   Wind: 17mph
Humidity: 68%   Direction: 190°S
Pressure: 30.23"   Gusts: 25mph
Location:  37.26°N, 90.12°W
Report Text: KCGI 281753Z 19015G22KT 10SM CLR 06/01 A3023 RMK AO2 SLP239 T00610006 10061 21017 58038
Loading
Personal Weather Stations






























Interactive Weather Map New forecast layout! Learn more

10-Day Weather Forecast

Advertisements
Track Severe Weather on mobile